createdAt,value
2023-03-04T00:02:02.737Z,84.40
2023-03-04T00:04:34.895Z,84.94
2023-03-04T00:07:06.995Z,84.98
2023-03-04T00:09:39.039Z,84.90
2023-03-04T00:12:11.166Z,84.33
2023-03-04T00:14:43.217Z,84.56
2023-03-04T00:17:15.343Z,85.17
2023-03-04T00:19:47.527Z,85.53
2023-03-04T00:22:19.632Z,85.05
2023-03-04T00:24:51.709Z,85.21
2023-03-04T00:27:23.765Z,84.88
2023-03-04T00:29:56.694Z,85.30
2023-03-04T00:32:28.700Z,85.30
2023-03-04T00:35:00.871Z,84.96
2023-03-04T00:37:33.079Z,85.32
2023-03-04T00:40:06.140Z,85.37
2023-03-04T00:42:38.188Z,85.15
2023-03-04T00:45:10.909Z,84.65
2023-03-04T00:47:42.923Z,84.94
2023-03-04T00:50:15.013Z,84.82
2023-03-04T00:52:47.015Z,85.32
2023-03-04T00:55:19.232Z,85.19
2023-03-04T00:57:51.276Z,85.01
2023-03-04T01:00:23.960Z,85.35
2023-03-04T01:02:56.059Z,85.53
2023-03-04T01:05:28.220Z,85.90
2023-03-04T01:08:00.242Z,85.83
2023-03-04T01:10:32.379Z,85.92
2023-03-04T01:13:04.428Z,86.07
2023-03-04T01:15:36.519Z,85.75
2023-03-04T01:18:08.684Z,85.95
2023-03-04T01:20:40.850Z,85.22
2023-03-04T01:23:12.949Z,85.60
2023-03-04T01:25:44.957Z,85.64
2023-03-04T01:28:16.961Z,85.88
2023-03-04T01:30:49.342Z,85.69
2023-03-04T01:33:21.490Z,84.60
2023-03-04T01:35:53.555Z,85.46
2023-03-04T01:38:25.878Z,84.94
2023-03-04T01:40:57.989Z,85.36
2023-03-04T01:43:31.677Z,85.63
2023-03-04T01:46:04.319Z,86.85
2023-03-04T01:48:38.566Z,87.29
2023-03-04T01:51:17.712Z,88.60
2023-03-04T01:53:53.440Z,88.66
2023-03-04T01:56:31.463Z,88.74
2023-03-04T01:59:16.894Z,88.34
2023-03-04T02:02:00.477Z,87.83
2023-03-04T02:04:34.482Z,87.97
2023-03-04T02:07:06.971Z,88.08
2023-03-04T02:09:38.963Z,87.68
2023-03-04T02:12:11.041Z,86.28
2023-03-04T02:14:43.041Z,86.06
2023-03-04T02:17:15.233Z,85.08
2023-03-04T02:19:59.101Z,83.91
2023-03-04T02:22:32.849Z,83.30
2023-03-04T02:25:12.501Z,83.79
2023-03-04T02:27:44.563Z,84.03
2023-03-04T02:30:20.692Z,84.68
2023-03-04T02:32:53.771Z,85.35
2023-03-04T02:35:25.794Z,86.57
2023-03-04T02:37:57.774Z,87.20
2023-03-04T02:40:34.544Z,88.45
2023-03-04T02:43:09.227Z,90.11
2023-03-04T02:45:43.991Z,91.06
2023-03-04T02:48:20.551Z,92.33
2023-03-04T02:50:54.158Z,92.61
2023-03-04T02:53:26.199Z,92.79
2023-03-04T02:55:58.154Z,92.92
2023-03-04T02:58:30.273Z,93.63
2023-03-04T03:01:02.602Z,93.86
2023-03-04T03:03:34.688Z,93.81
2023-03-04T03:06:07.206Z,93.54
2023-03-04T03:08:39.254Z,92.82
2023-03-04T03:11:12.838Z,93.31
2023-03-04T03:13:44.787Z,92.50
2023-03-04T03:16:16.802Z,93.11
2023-03-04T03:18:48.876Z,92.98
2023-03-04T03:21:20.959Z,92.55
2023-03-04T03:23:53.101Z,91.82
2023-03-04T03:26:25.339Z,91.70
2023-03-04T03:28:57.383Z,91.37
2023-03-04T03:31:29.466Z,90.86
2023-03-04T03:34:01.583Z,90.88
2023-03-04T03:36:33.683Z,90.36
2023-03-04T03:39:05.883Z,90.17
2023-03-04T03:41:37.955Z,90.63
2023-03-04T03:44:10.000Z,90.49
2023-03-04T03:46:42.063Z,90.29
2023-03-04T03:49:14.668Z,90.75
2023-03-04T03:51:46.701Z,90.65
2023-03-04T03:54:18.689Z,91.59
2023-03-04T03:56:50.946Z,91.72
2023-03-04T03:59:24.268Z,92.36
2023-03-04T04:01:56.293Z,92.95
2023-03-04T04:04:28.932Z,93.52
2023-03-04T04:07:01.170Z,94.36
2023-03-04T04:09:36.358Z,95.06
2023-03-04T04:12:08.681Z,95.69
2023-03-04T04:14:40.929Z,96.18
2023-03-04T04:17:14.085Z,97.12
2023-03-04T04:19:46.099Z,97.43
2023-03-04T04:22:21.014Z,97.89
2023-03-04T04:24:53.035Z,98.56
2023-03-04T04:27:25.067Z,98.40
2023-03-04T04:29:57.051Z,97.73
2023-03-04T04:32:29.128Z,98.00
2023-03-04T04:35:01.104Z,98.48
2023-03-04T04:37:33.409Z,98.92
2023-03-04T04:40:06.246Z,99.78
2023-03-04T04:42:38.298Z,100.00
2023-03-04T04:45:11.192Z,100.00
2023-03-04T04:47:46.189Z,100.00
2023-03-04T04:50:18.477Z,100.00
2023-03-04T04:52:50.606Z,100.00
2023-03-04T04:55:22.628Z,100.00
2023-03-04T04:57:54.690Z,100.00
2023-03-04T05:00:27.115Z,100.00
2023-03-04T05:02:59.127Z,100.00
2023-03-04T05:05:31.194Z,100.00
2023-03-04T05:08:03.280Z,100.00
2023-03-04T05:10:35.268Z,100.00
2023-03-04T05:13:07.282Z,100.00
2023-03-04T05:15:39.795Z,100.00
2023-03-04T05:18:11.973Z,100.00
2023-03-04T05:20:44.172Z,100.00
2023-03-04T05:23:16.105Z,100.00
2023-03-04T05:25:48.204Z,100.00
2023-03-04T05:28:20.763Z,100.00
2023-03-04T05:30:52.829Z,100.00
2023-03-04T05:33:24.883Z,100.00
2023-03-04T05:35:57.106Z,100.00
2023-03-04T05:38:29.149Z,100.00
2023-03-04T05:41:05.862Z,100.00
2023-03-04T05:43:42.785Z,100.00
2023-03-04T05:46:17.483Z,100.00
2023-03-04T05:48:49.482Z,100.00
2023-03-04T05:51:22.982Z,100.00
2023-03-04T05:53:54.928Z,100.00
2023-03-04T05:56:26.997Z,100.00
2023-03-04T05:58:59.566Z,100.00
2023-03-04T06:01:31.739Z,100.00
2023-03-04T06:04:03.884Z,100.00
2023-03-04T06:06:35.949Z,100.00
2023-03-04T06:09:08.024Z,100.00
2023-03-04T06:11:40.283Z,100.00
2023-03-04T06:14:12.454Z,100.00
2023-03-04T06:16:44.624Z,100.00
2023-03-04T06:19:16.625Z,100.00
2023-03-04T06:21:48.755Z,100.00
2023-03-04T06:24:20.947Z,100.00
2023-03-04T06:26:52.950Z,100.00
2023-03-04T06:29:24.931Z,100.00
2023-03-04T06:31:56.960Z,100.00
2023-03-04T06:34:29.990Z,100.00
2023-03-04T06:37:02.331Z,100.00
2023-03-04T06:39:34.431Z,100.00
2023-03-04T06:42:06.631Z,100.00
2023-03-04T06:44:38.703Z,100.00
2023-03-04T06:47:10.841Z,100.00
2023-03-04T06:49:42.983Z,100.00
2023-03-04T06:52:15.647Z,100.00
2023-03-04T06:54:47.684Z,100.00
2023-03-04T06:57:19.756Z,100.00
2023-03-04T06:59:51.735Z,100.00
2023-03-04T07:02:24.132Z,100.00
2023-03-04T07:04:56.169Z,100.00
2023-03-04T07:07:28.221Z,100.00
2023-03-04T07:10:00.494Z,100.00
2023-03-04T07:12:32.866Z,100.00
2023-03-04T07:15:05.627Z,100.00
2023-03-04T07:17:37.624Z,100.00
2023-03-04T07:20:10.669Z,100.00
2023-03-04T07:22:42.618Z,100.00
2023-03-04T07:25:14.618Z,100.00
2023-03-04T07:27:46.578Z,100.00
2023-03-04T07:30:19.011Z,100.00
2023-03-04T07:32:51.347Z,100.00
2023-03-04T07:35:23.515Z,100.00
2023-03-04T07:37:55.614Z,100.00
2023-03-04T07:40:27.748Z,100.00
2023-03-04T07:42:59.806Z,100.00
2023-03-04T07:45:31.941Z,100.00
2023-03-04T07:48:04.198Z,100.00
2023-03-04T07:50:36.166Z,100.00
2023-03-04T07:53:08.173Z,100.00
2023-03-04T07:55:40.196Z,100.00
2023-03-04T07:58:12.169Z,100.00
2023-03-04T08:00:47.487Z,100.00
2023-03-04T08:03:19.468Z,100.00
2023-03-04T08:05:52.159Z,100.00
2023-03-04T08:08:24.190Z,100.00
2023-03-04T08:10:56.643Z,100.00
2023-03-04T08:13:28.744Z,100.00
2023-03-04T08:16:01.245Z,100.00
2023-03-04T08:18:33.538Z,100.00
2023-03-04T08:21:11.010Z,100.00
2023-03-04T08:23:43.256Z,100.00
2023-03-04T08:26:34.180Z,100.00
2023-03-04T08:29:06.525Z,98.99
2023-03-04T08:31:39.611Z,98.05
2023-03-04T08:34:13.170Z,96.91
2023-03-04T08:36:45.523Z,97.79
2023-03-04T08:39:21.255Z,98.93
2023-03-04T08:41:53.266Z,99.25
2023-03-04T08:44:26.789Z,98.03
2023-03-04T08:46:58.916Z,98.24
2023-03-04T08:49:30.978Z,96.73
2023-03-04T08:52:03.015Z,95.02
2023-03-04T08:54:35.256Z,93.89
2023-03-04T08:57:07.961Z,90.62
2023-03-04T08:59:40.015Z,89.91
2023-03-04T09:02:12.212Z,86.49
2023-03-04T09:04:44.263Z,88.71
2023-03-04T09:07:16.431Z,87.16
2023-03-04T09:09:48.404Z,87.57
2023-03-04T09:12:20.441Z,90.16
2023-03-04T09:15:08.252Z,91.94
2023-03-04T09:17:42.296Z,93.31
2023-03-04T09:20:14.399Z,94.37
2023-03-04T09:22:46.780Z,95.79
2023-03-04T09:25:18.851Z,93.22
2023-03-04T09:27:50.934Z,93.53
2023-03-04T09:30:23.173Z,93.16
2023-03-04T09:32:55.236Z,93.31
2023-03-04T09:35:29.962Z,90.94
2023-03-04T09:38:02.405Z,88.39
2023-03-04T09:40:48.496Z,85.42
2023-03-04T09:43:29.730Z,86.25
2023-03-04T09:46:13.057Z,87.27
2023-03-04T09:48:50.213Z,84.24
2023-03-04T09:52:17.208Z,85.76
2023-03-04T09:55:18.882Z,85.42
2023-03-04T09:58:27.457Z,82.32
2023-03-04T10:01:34.382Z,82.22
2023-03-04T10:04:40.672Z,82.09
2023-03-04T10:07:30.136Z,79.73
2023-03-04T10:10:17.477Z,79.51
2023-03-04T10:12:51.457Z,78.21
2023-03-04T10:15:39.300Z,80.16
2023-03-04T10:18:53.297Z,83.14
2023-03-04T10:21:36.932Z,83.63
2023-03-04T10:24:18.113Z,83.44
2023-03-04T10:26:56.156Z,86.47
2023-03-04T10:29:30.484Z,83.37
2023-03-04T10:32:02.597Z,80.89
2023-03-04T10:34:34.957Z,79.04
2023-03-04T10:37:08.871Z,80.71
2023-03-04T10:39:50.748Z,83.98
2023-03-04T10:42:29.926Z,84.51
2023-03-04T10:45:01.969Z,86.49
2023-03-04T10:47:35.386Z,89.94
2023-03-04T10:50:25.257Z,89.84
2023-03-04T10:52:57.700Z,91.25
2023-03-04T10:55:43.003Z,78.74
2023-03-04T10:58:19.364Z,76.95
2023-03-04T11:01:07.164Z,73.19
2023-03-04T11:03:47.267Z,71.45
2023-03-04T11:06:23.065Z,70.46
2023-03-04T11:09:00.374Z,67.96
2023-03-04T11:11:44.529Z,69.29
2023-03-04T11:14:23.601Z,73.87
2023-03-04T11:17:02.292Z,76.93
2023-03-04T11:19:42.254Z,78.40
2023-03-04T11:22:18.832Z,76.83
2023-03-04T11:25:26.823Z,74.52
2023-03-04T11:28:13.182Z,71.85
2023-03-04T11:30:51.037Z,71.14
2023-03-04T11:33:45.755Z,65.08
2023-03-04T11:36:37.203Z,62.16
2023-03-04T11:39:22.410Z,62.67
2023-03-04T11:42:24.114Z,63.11
2023-03-04T11:44:56.758Z,65.05
2023-03-04T11:48:08.753Z,68.35
2023-03-04T11:50:58.393Z,70.84
2023-03-04T11:54:19.055Z,69.03
2023-03-04T11:57:20.130Z,64.92
2023-03-04T12:00:22.898Z,67.28
2023-03-04T12:03:26.214Z,66.87
2023-03-04T12:06:37.818Z,63.92
2023-03-04T12:09:30.954Z,60.99
2023-03-04T12:12:29.936Z,60.97
2023-03-04T12:15:20.139Z,62.02
2023-03-04T12:18:30.306Z,63.45
2023-03-04T12:21:43.072Z,69.60
2023-03-04T12:24:42.966Z,78.12
2023-03-04T12:27:26.288Z,82.26
2023-03-04T12:30:23.325Z,81.14
2023-03-04T12:33:25.854Z,81.03
2023-03-04T12:36:27.446Z,83.04
2023-03-04T12:39:49.114Z,77.04
2023-03-04T12:42:51.311Z,74.95
2023-03-04T12:45:37.283Z,71.12
2023-03-04T12:48:33.214Z,73.47
2023-03-04T12:51:45.073Z,70.24
2023-03-04T12:54:26.268Z,70.12
2023-03-04T12:57:05.064Z,67.75
2023-03-04T13:00:32.260Z,63.84
2023-03-04T13:03:38.136Z,65.49
2023-03-04T13:06:38.578Z,68.79
2023-03-04T13:09:27.021Z,70.79
2023-03-04T13:12:22.630Z,71.47
2023-03-04T13:15:10.040Z,71.91
2023-03-04T13:17:51.588Z,70.70
2023-03-04T13:20:42.909Z,71.00
2023-03-04T13:23:14.818Z,70.25
2023-03-04T13:25:55.893Z,68.70
2023-03-04T13:28:33.431Z,70.49
2023-03-04T13:31:10.842Z,66.59
2023-03-04T13:33:42.728Z,63.27
2023-03-04T13:36:54.972Z,65.09
2023-03-04T13:39:30.058Z,65.37
2023-03-04T13:42:03.614Z,64.08
2023-03-04T13:44:44.706Z,61.35
2023-03-04T13:47:21.923Z,61.96
2023-03-04T13:50:30.017Z,61.03
2023-03-04T13:53:31.449Z,59.74
2023-03-04T13:56:41.964Z,60.76
2023-03-04T13:59:30.188Z,59.29
2023-03-04T14:02:15.954Z,63.70
2023-03-04T14:04:59.847Z,66.53
2023-03-04T14:07:36.608Z,64.79
2023-03-04T14:10:11.604Z,66.38
2023-03-04T14:12:56.903Z,64.40
2023-03-04T14:15:35.166Z,63.14
2023-03-04T14:18:07.416Z,65.23
2023-03-04T14:20:48.918Z,67.12
2023-03-04T14:23:34.574Z,68.17
2023-03-04T14:26:18.489Z,68.17
2023-03-04T14:28:56.781Z,66.24
2023-03-04T14:31:34.948Z,66.57
2023-03-04T14:34:15.405Z,67.97
2023-03-04T14:36:47.540Z,71.29
2023-03-04T14:39:21.409Z,73.92
2023-03-04T14:41:56.821Z,71.70
2023-03-04T14:44:45.971Z,73.67
2023-03-04T14:47:40.536Z,72.56
2023-03-04T14:50:19.669Z,70.55
2023-03-04T14:53:19.037Z,71.22
2023-03-04T14:56:08.233Z,68.63
2023-03-04T14:58:58.256Z,67.23
2023-03-04T15:01:37.633Z,67.75
2023-03-04T15:04:12.283Z,67.54
2023-03-04T15:06:53.510Z,69.71
2023-03-04T15:09:27.404Z,68.74
2023-03-04T15:12:07.014Z,67.30
2023-03-04T15:14:50.221Z,65.89
2023-03-04T15:17:38.865Z,65.74
2023-03-04T15:20:10.804Z,68.60
2023-03-04T15:22:48.518Z,65.70
2023-03-04T15:25:21.507Z,65.20
2023-03-04T15:27:54.637Z,64.00
2023-03-04T15:30:33.336Z,64.67
2023-03-04T15:33:10.839Z,63.91
2023-03-04T15:35:54.032Z,64.06
2023-03-04T15:38:27.679Z,65.89
2023-03-04T15:40:59.855Z,68.20
2023-03-04T15:43:31.842Z,68.63
2023-03-04T15:46:04.359Z,67.45
2023-03-04T15:48:36.324Z,68.61
2023-03-04T15:51:15.713Z,68.07
2023-03-04T15:53:51.293Z,67.99
2023-03-04T15:56:32.357Z,67.37
2023-03-04T15:59:11.572Z,69.00
2023-03-04T16:01:44.061Z,69.48
2023-03-04T16:04:17.929Z,68.50
2023-03-04T16:06:50.633Z,70.73
2023-03-04T16:09:23.069Z,72.95
2023-03-04T16:12:01.829Z,73.10
2023-03-04T16:14:33.921Z,74.31
2023-03-04T16:17:05.960Z,74.28
2023-03-04T16:19:39.082Z,76.82
2023-03-04T16:22:18.936Z,77.21
2023-03-04T16:24:52.606Z,77.52
2023-03-04T16:27:26.634Z,79.06
2023-03-04T16:29:58.717Z,79.34
2023-03-04T16:32:33.099Z,79.26
2023-03-04T16:35:06.706Z,79.50
2023-03-04T16:37:39.292Z,81.48
2023-03-04T16:40:19.788Z,86.25
2023-03-04T16:42:51.937Z,88.14
2023-03-04T16:45:30.310Z,89.10
2023-03-04T16:48:02.324Z,90.15
2023-03-04T16:50:36.818Z,91.17
2023-03-04T16:53:39.278Z,90.93
2023-03-04T16:56:17.392Z,91.42
2023-03-04T16:58:49.640Z,92.86
2023-03-04T17:01:26.648Z,92.85
2023-03-04T17:03:58.646Z,91.84
2023-03-04T17:06:30.955Z,91.71
2023-03-04T17:09:02.924Z,90.35
2023-03-04T17:11:36.056Z,90.77
2023-03-04T17:14:08.054Z,90.09
2023-03-04T17:16:39.990Z,89.75
2023-03-04T17:19:11.930Z,88.70
2023-03-04T17:21:43.970Z,87.44
2023-03-04T17:24:15.989Z,88.84
2023-03-04T17:26:48.027Z,89.24
2023-03-04T17:29:20.543Z,88.48
2023-03-04T17:31:52.620Z,87.09
2023-03-04T17:34:25.898Z,87.12
2023-03-04T17:36:57.985Z,87.21
2023-03-04T17:39:29.957Z,88.54
2023-03-04T17:42:02.002Z,88.12
2023-03-04T17:44:34.105Z,87.79
2023-03-04T17:47:06.450Z,87.26
2023-03-04T17:49:38.447Z,87.70
2023-03-04T17:52:12.084Z,87.71
2023-03-04T17:54:46.442Z,88.13
2023-03-04T17:57:18.483Z,86.34
2023-03-04T17:59:50.591Z,86.25
2023-03-04T18:02:22.585Z,86.69
2023-03-04T18:04:54.585Z,86.58
2023-03-04T18:07:26.666Z,87.39
2023-03-04T18:09:58.702Z,89.10
2023-03-04T18:12:30.943Z,89.16
2023-03-04T18:15:03.053Z,89.08
2023-03-04T18:17:35.088Z,89.64
2023-03-04T18:20:08.081Z,88.16
2023-03-04T18:22:40.100Z,88.88
2023-03-04T18:25:12.887Z,88.12
2023-03-04T18:27:45.029Z,87.15
2023-03-04T18:30:17.926Z,88.12
2023-03-04T18:32:52.453Z,87.93
2023-03-04T18:35:24.611Z,87.97
2023-03-04T18:37:56.654Z,87.12
2023-03-04T18:40:29.718Z,88.60
2023-03-04T18:43:01.769Z,87.61
2023-03-04T18:45:33.825Z,87.46
2023-03-04T18:48:06.269Z,87.83
2023-03-04T18:50:38.221Z,87.88
2023-03-04T18:53:10.202Z,87.68
2023-03-04T18:55:42.169Z,87.37
2023-03-04T18:58:14.338Z,87.68
2023-03-04T19:00:46.636Z,87.30
2023-03-04T19:03:18.665Z,86.42
2023-03-04T19:05:50.726Z,86.99
2023-03-04T19:08:22.730Z,86.36
2023-03-04T19:10:55.798Z,86.45
2023-03-04T19:13:30.538Z,86.37
2023-03-04T19:16:02.600Z,87.22
2023-03-04T19:18:34.812Z,87.10
2023-03-04T19:21:07.017Z,87.15
2023-03-04T19:23:40.149Z,87.05
2023-03-04T19:26:13.908Z,87.04
2023-03-04T19:28:46.104Z,87.44
2023-03-04T19:31:18.214Z,87.17
2023-03-04T19:33:50.231Z,86.53
2023-03-04T19:36:22.453Z,87.15
2023-03-04T19:38:55.595Z,86.51
2023-03-04T19:41:30.089Z,86.22
2023-03-04T19:44:02.219Z,86.02
2023-03-04T19:46:34.684Z,85.82
2023-03-04T19:49:07.004Z,85.79
2023-03-04T19:51:41.290Z,87.10
2023-03-04T19:54:13.326Z,86.74
2023-03-04T19:56:45.412Z,87.71
2023-03-04T19:59:17.547Z,89.00
2023-03-04T20:01:49.631Z,88.80
2023-03-04T20:04:22.231Z,89.43
2023-03-04T20:06:54.217Z,89.65
2023-03-04T20:09:26.253Z,90.14
2023-03-04T20:11:59.539Z,92.29
2023-03-04T20:14:33.840Z,94.17
2023-03-04T20:17:07.193Z,94.36
2023-03-04T20:19:39.324Z,95.08
2023-03-04T20:22:13.450Z,95.33
2023-03-04T20:24:45.413Z,95.91
2023-03-04T20:27:18.118Z,97.06
2023-03-04T20:29:50.160Z,96.77
2023-03-04T20:32:22.902Z,96.71
2023-03-04T20:34:57.185Z,97.03
2023-03-04T20:37:29.391Z,97.74
2023-03-04T20:40:01.410Z,97.91
2023-03-04T20:42:33.972Z,96.51
2023-03-04T20:45:07.014Z,97.45
2023-03-04T20:47:39.744Z,96.70
2023-03-04T20:50:12.107Z,96.94
2023-03-04T20:52:46.179Z,98.60
2023-03-04T20:55:19.433Z,98.92
2023-03-04T20:57:51.420Z,98.84
2023-03-04T21:00:23.654Z,99.60
2023-03-04T21:02:55.755Z,99.95
2023-03-04T21:05:27.795Z,99.12
2023-03-04T21:07:59.881Z,98.26
2023-03-04T21:10:35.900Z,99.19
2023-03-04T21:13:11.327Z,98.84
2023-03-04T21:15:47.875Z,98.63
2023-03-04T21:18:19.871Z,98.86
2023-03-04T21:20:52.570Z,98.74
2023-03-04T21:23:24.699Z,99.42
2023-03-04T21:25:59.687Z,99.50
2023-03-04T21:28:31.661Z,98.65
2023-03-04T21:31:04.974Z,99.68
2023-03-04T21:33:37.491Z,99.85
2023-03-04T21:36:11.534Z,100.00
2023-03-04T21:38:45.124Z,100.00
2023-03-04T21:41:20.918Z,100.00
2023-03-04T21:43:52.958Z,100.00
2023-03-04T21:46:25.081Z,100.00
2023-03-04T21:48:57.058Z,100.00
2023-03-04T21:51:29.204Z,100.00
2023-03-04T21:54:01.723Z,100.00
2023-03-04T21:56:34.549Z,100.00
2023-03-04T21:59:10.178Z,100.00
2023-03-04T22:01:42.503Z,100.00
2023-03-04T22:04:14.544Z,100.00
2023-03-04T22:06:46.553Z,100.00
2023-03-04T22:09:18.654Z,100.00
2023-03-04T22:11:50.898Z,100.00
2023-03-04T22:14:22.828Z,100.00
2023-03-04T22:16:56.202Z,100.00
2023-03-04T22:19:32.381Z,100.00
2023-03-04T22:22:04.540Z,100.00
2023-03-04T22:24:36.609Z,100.00
2023-03-04T22:27:08.796Z,100.00
2023-03-04T22:29:40.779Z,100.00
2023-03-04T22:32:13.110Z,100.00
2023-03-04T22:34:45.173Z,100.00
2023-03-04T22:37:17.125Z,100.00
2023-03-04T22:39:49.202Z,100.00
2023-03-04T22:42:21.287Z,100.00
2023-03-04T22:44:55.709Z,100.00
2023-03-04T22:47:27.708Z,100.00
2023-03-04T22:49:59.669Z,100.00
2023-03-04T22:52:31.716Z,100.00
2023-03-04T22:55:04.305Z,100.00
2023-03-04T22:57:36.304Z,100.00
2023-03-04T23:00:22.970Z,100.00
2023-03-04T23:02:55.828Z,100.00
2023-03-04T23:05:28.190Z,100.00
2023-03-04T23:08:00.220Z,100.00
2023-03-04T23:10:32.188Z,100.00
2023-03-04T23:13:04.255Z,100.00
2023-03-04T23:15:36.187Z,100.00
2023-03-04T23:18:08.163Z,100.00
2023-03-04T23:20:42.322Z,100.00
2023-03-04T23:23:14.352Z,100.00
2023-03-04T23:25:46.490Z,100.00
2023-03-04T23:28:19.219Z,100.00
2023-03-04T23:30:51.293Z,100.00
2023-03-04T23:33:23.485Z,100.00
2023-03-04T23:35:55.521Z,100.00
2023-03-04T23:38:27.918Z,100.00
2023-03-04T23:40:59.968Z,100.00
2023-03-04T23:43:33.071Z,100.00
2023-03-04T23:46:05.452Z,100.00
2023-03-04T23:48:39.708Z,100.00
2023-03-04T23:51:12.287Z,100.00
2023-03-04T23:53:45.712Z,100.00
2023-03-04T23:56:24.136Z,100.00
2023-03-04T23:58:58.185Z,100.00
